Latest Weather Observations for Archerfield

IDQ60901

Issued at 5:35 pm EST Friday 24 October 2014 (issued every 10 minutes, with the page automatically refreshed every 10 minutes)

About weather observations | Map of Brisbane area stations | Latest observations for Brisbane area | Other Formats
Station Details ID: 040211 Name: ARCHERFIELD AIRPORT Lat: -27.57 Lon: 153.01 Height: 12.5 m
Data from the previous 72 hours. | See also: Recent months at Archerfield
Date/Time
EST
Tmp

°C
App
Tmp
°C
Dew
Point
°C
Rel
Hum
%
Delta-T

°C
Wind Press
QNH
hPa
Press
MSL
hPa
Rain
since
9 am
mm
Dir
 
Spd
km/h
Gust
km/h
Spd
kts
Gust
kts
24/05:30pm 22.2 18.3 14.3 61 4.6 N 28 37 15 20 1019.8 1019.7 0.0
24/05:00pm 22.8 18.3 14.9 61 4.7 NNE 32 39 17 21 1019.4 1019.3 0.0
24/04:30pm 23.6 19.2 15.1 59 5.1 NNE 32 39 17 21 1019.1 1019.0 0.0
24/04:00pm 24.7 20.7 15.1 55 5.7 N 30 37 16 20 1019.0 1018.9 0.0
24/03:30pm 25.6 21.7 15.6 54 6.1 NNE 30 39 16 21 1018.9 1018.8 0.0
24/03:00pm 25.5 22.0 15.5 54 6.0 NNE 28 37 15 20 1018.9 1018.8 0.0
24/02:30pm 26.5 23.4 15.5 50 6.7 NNE 26 33 14 18 1019.2 1019.1 0.0
24/02:00pm 26.4 22.6 14.8 49 7.0 N 28 37 15 20 1019.4 1019.3 0.0
24/01:30pm 27.1 23.6 14.5 46 7.6 NNE 26 35 14 19 1019.6 1019.5 0.0
24/01:00pm 27.1 25.3 14.5 46 7.5 N 17 32 9 17 1019.9 1019.8 0.0
24/12:30pm 26.9 24.9 14.0 45 7.7 N 17 24 9 13 1020.1 1020.0 0.0
24/12:00pm 27.5 25.3 14.5 45 7.8 NNE 19 24 10 13 1020.3 1020.2 0.0
24/11:30am 26.7 24.9 13.4 43 7.8 NNW 15 24 8 13 1020.9 1020.8 0.0
24/11:00am 26.3 24.9 13.4 45 7.6 NW 13 22 7 12 1021.4 1021.3 0.0
24/10:30am 25.0 23.8 12.9 47 7.0 NNE 11 20 6 11 1021.7 1021.6 0.0
24/10:00am 25.1 25.0 13.3 48 6.9 NNE 6 13 3 7 1022.1 1022.0 0.0
24/09:30am 24.5 24.1 14.0 52 6.2 N 9 19 5 10 1022.6 1022.5 0.0
24/09:00am 24.4 23.6 13.9 52 6.1 NNE 11 20 6 11 1022.7 1022.6 0.0
24/08:30am 23.0 21.8 14.0 57 5.3 N 13 22 7 12 1022.7 1022.6 0.0
24/08:00am 22.1 21.9 13.5 58 4.9 NNW 7 15 4 8 1022.9 1022.8 0.0
24/07:30am 20.8 20.8 13.7 64 4.1 WSW 6 9 3 5 1022.7 1022.6 0.0
24/07:00am 19.5 20.8 14.1 71 3.1 CALM 0 0 0 0 1022.6 1022.5 0.0
24/06:30am 17.2 17.0 13.7 80 2.0 S 7 9 4 5 1022.4 1022.3 0.0
24/06:00am 15.8 15.2 13.6 87 1.2 S 9 9 5 5 1022.2 1022.1 0.0
24/05:30am 14.4 13.9 12.6 89 1.0 S 7 9 4 5 1022.0 1021.9 0.0
24/05:00am 14.5 13.6 12.7 89 1.0 S 9 11 5 6 1021.6 1021.5 0.0
24/04:30am 15.0 13.9 13.0 88 1.1 SSE 11 11 6 6 1021.2 1021.1 0.0
24/04:00am 15.1 14.7 13.0 87 1.2 S 7 9 4 5 1021.0 1020.9 0.0
24/03:30am 15.2 14.8 12.5 84 1.5 SSE 6 7 3 4 1020.8 1020.7 0.0
24/03:00am 16.6 17.5 12.9 79 2.1 CALM 0 0 0 0 1020.6 1020.5 0.0
24/02:30am 17.0 17.9 12.9 77 2.3 CALM 0 0 0 0 1020.5 1020.4 0.0
24/02:00am 17.7 17.8 13.8 78 2.2 NNE 6 7 3 4 1020.6 1020.5 0.0
24/01:30am 17.3 17.9 13.2 77 2.3 N 2 6 1 3 1020.7 1020.6 0.0
24/01:22am 17.5 18.3 13.6 78 2.2 NNW 2 6 1 3 1020.7 1020.6 0.0
24/01:06am 17.2 17.0 13.1 77 2.3 WNW 6 7 3 4 1020.8 1020.7 0.0
24/01:00am 17.7 18.1 13.6 77 2.3 NW 4 6 2 3 1020.8 1020.7 0.0
24/12:30am 17.0 16.7 13.3 79 2.1 N 7 9 4 5 1020.9 1020.8 0.0
24/12:00am 18.2 17.3 13.7 75 2.6 NE 11 13 6 7 1021.2 1021.1 0.0
 
Date/Time
EST
Tmp

°C
App
Tmp
°C
Dew
Point
°C
Rel
Hum
%
Delta-T

°C
Wind Press
QNH
hPa
Press
MSL
hPa
Rain
since
9 am
mm
Dir
 
Spd
km/h
Gust
km/h
Spd
kts
Gust
kts
23/11:30pm 18.5 17.9 13.6 73 2.8 NE 9 13 5 7 1021.5 1021.4 0.0
23/11:00pm 18.7 17.4 13.6 72 2.9 NNE 13 17 7 9 1021.5 1021.4 0.0
23/10:30pm 19.8 18.3 14.2 70 3.2 NE 15 17 8 9 1021.5 1021.4 0.0
23/10:00pm 19.8 18.3 14.2 70 3.2 NNE 15 19 8 10 1021.1 1021.0 0.0
23/09:30pm 20.4 18.5 14.1 67 3.6 NNE 17 20 9 11 1021.3 1021.2 0.0
23/09:00pm 20.1 18.5 13.8 67 3.6 NNE 15 19 8 10 1021.4 1021.3 0.0
23/08:30pm 20.5 20.0 13.7 65 3.9 NNE 9 15 5 8 1021.5 1021.4 0.0
23/08:00pm 20.6 18.1 13.6 64 4.0 NNE 19 22 10 12 1020.9 1020.8 0.0
23/07:30pm 20.8 18.4 13.7 64 4.1 NNE 19 28 10 15 1020.3 1020.2 0.0
23/07:00pm 20.9 18.2 13.6 63 4.2 NNE 20 30 11 16 1019.8 1019.7 0.0
23/06:30pm 20.9 17.4 13.4 62 4.3 N 24 32 13 17 1019.5 1019.4 0.0
23/06:00pm 21.2 17.4 13.6 62 4.4 NNE 26 35 14 19 1018.9 1018.8 0.0
23/05:30pm 21.9 18.8 13.5 59 4.8 NNE 22 32 12 17 1018.6 1018.5 0.0
23/05:00pm 23.3 19.9 13.8 55 5.5 NNE 24 32 13 17 1018.0 1017.9 0.0
23/04:30pm 23.9 19.9 14.0 54 5.8 N 28 33 15 18 1017.3 1017.2 0.0
23/04:00pm 25.1 21.2 14.3 51 6.4 NNE 28 35 15 19 1017.1 1017.0 0.0
23/03:30pm 26.4 22.7 13.9 46 7.4 N 26 33 14 18 1016.8 1016.7 0.0
23/03:00pm 25.9 21.6 12.0 42 8.0 N 26 33 14 18 1017.0 1016.9 0.0
23/02:30pm 26.4 22.7 12.8 43 7.9 N 24 32 13 17 1017.1 1017.0 0.0
23/02:00pm 27.3 23.3 12.9 41 8.4 N 26 33 14 18 1017.3 1017.2 0.0
23/01:30pm 27.1 23.9 12.0 39 8.7 N 20 30 11 16 1017.8 1017.7 0.0
23/01:00pm 27.1 25.8 11.2 37 9.0 N 9 15 5 8 1018.4 1018.3 0.0
23/12:30pm 26.3 24.3 10.0 36 9.0 ENE 11 17 6 9 1018.9 1018.8 0.0
23/12:00pm 25.7 24.7 11.1 40 8.2 W 7 15 4 8 1019.7 1019.6 0.0
23/11:30am 25.7 24.8 11.5 41 8.1 NNE 7 15 4 8 1020.3 1020.2 0.0
23/11:00am 25.1 24.1 12.3 45 7.3 WSW 9 15 5 8 1020.8 1020.7 0.0
23/10:30am 23.7 22.5 10.4 43 7.3 NNE 7 13 4 7 1021.3 1021.2 0.0
23/10:00am 23.0 21.2 10.8 46 6.7 NE 11 19 6 10 1021.9 1021.8 0.0
23/09:30am 22.3 20.7 11.4 50 6.1 N 11 17 6 9 1022.3 1022.2 0.0
23/09:00am 22.1 21.3 11.8 52 5.8 W 7 15 4 8 1022.7 1022.6 0.0
23/08:30am 20.7 20.0 11.3 55 5.2 S 6 9 3 5 1022.8 1022.7 0.0
23/08:00am 19.6 19.1 12.1 62 4.2 WSW 6 9 3 5 1022.8 1022.7 0.0
23/07:30am 17.9 17.1 11.7 67 3.4 S 7 9 4 5 1023.0 1022.9 0.0
23/07:00am 16.2 14.4 12.2 77 2.2 S 13 15 7 8 1022.8 1022.7 0.0
23/06:30am 14.4 13.4 11.0 80 1.8 S 7 11 4 6 1022.6 1022.5 0.0
23/06:00am 13.0 12.0 11.1 88 1.0 S 7 9 4 5 1022.4 1022.3 0.0
23/05:30am 11.4 10.2 9.7 89 0.9 S 6 7 3 4 1022.2 1022.1 0.0
23/05:00am 12.0 10.8 10.4 90 0.8 SE 7 7 4 4 1022.0 1021.9 0.0
23/04:30am 12.0 10.9 10.1 88 1.0 S 6 7 3 4 1022.0 1021.9 0.0
23/04:00am 11.7 10.6 10.1 90 0.8 S 6 7 3 4 1022.0 1021.9 0.0
23/03:30am 12.4 11.5 10.5 88 1.0 S 6 7 3 4 1021.7 1021.6 0.0
23/03:00am 12.2 11.1 10.6 90 0.8 S 7 9 4 5 1021.8 1021.7 0.0
23/02:30am 11.9 10.8 10.1 89 0.9 SSW 6 9 3 5 1021.9 1021.8 0.0
23/02:00am 11.8 10.6 9.5 86 1.2 SSE 6 9 3 5 1021.8 1021.7 0.0
23/01:30am 12.2 11.9 10.1 87 1.1 SSE 2 7 1 4 1022.0 1021.9 0.0
23/01:00am 12.8 11.7 10.7 87 1.1 S 7 9 4 5 1022.4 1022.3 0.0
23/12:30am 13.2 11.6 10.2 82 1.6 S 9 11 5 6 1022.6 1022.5 0.0
23/12:00am 14.1 12.8 11.4 84 1.4 S 9 11 5 6 1022.8 1022.7 0.0
 
Date/Time
EST
Tmp

°C
App
Tmp
°C
Dew
Point
°C
Rel
Hum
%
Delta-T

°C
Wind Press
QNH
hPa
Press
MSL
hPa
Rain
since
9 am
mm
Dir
 
Spd
km/h
Gust
km/h
Spd
kts
Gust
kts
22/11:30pm 14.8 13.9 11.4 80 1.8 S 7 9 4 5 1023.1 1023.0 0.0
22/11:00pm 15.4 15.1 11.6 78 2.0 SSE 4 9 2 5 1023.3 1023.2 0.0
22/10:30pm 15.5 15.9 11.3 76 2.3 CALM 0 0 0 0 1023.5 1023.4 0.0
22/10:00pm 15.6 16.0 11.4 76 2.2 CALM 0 0 0 0 1023.4 1023.3 0.0
22/09:30pm 16.4 15.7 11.3 72 2.7 NE 6 7 3 4 1023.4 1023.3 0.0
22/09:00pm 16.7 15.9 11.2 70 2.9 NE 6 7 3 4 1023.5 1023.4 0.0
22/08:30pm 17.6 16.4 11.6 68 3.3 ENE 9 13 5 7 1023.5 1023.4 0.0
22/08:00pm 17.9 16.3 11.5 66 3.5 ENE 11 13 6 7 1023.4 1023.3 0.0
22/07:30pm 18.5 16.9 11.6 64 3.8 ENE 11 15 6 8 1023.2 1023.1 0.0
22/07:00pm 19.2 16.9 11.7 62 4.1 ENE 15 19 8 10 1023.0 1022.9 0.0
22/06:30pm 19.6 16.9 11.6 60 4.4 E 17 22 9 12 1023.1 1023.0 0.0
22/06:00pm 20.0 16.9 11.5 58 4.7 ENE 19 24 10 13 1022.9 1022.8 0.0
22/05:30pm 20.9 17.6 11.5 55 5.2 E 20 28 11 15 1022.6 1022.5 0.0
22/05:00pm 21.7 17.5 11.1 51 5.8 E 24 32 13 17 1022.3 1022.2 0.0
22/04:30pm 22.3 18.6 11.4 50 6.1 ESE 22 33 12 18 1022.2 1022.1 0.0
22/04:00pm 23.3 18.8 11.4 47 6.6 E 26 32 14 17 1022.0 1021.9 0.0
22/03:30pm 23.2 18.6 10.9 46 6.8 E 26 33 14 18 1021.9 1021.8 0.0
22/03:00pm 24.2 20.4 12.5 48 6.7 SE 24 28 13 15 1021.9 1021.8 0.0
22/02:30pm 24.1 20.5 11.8 46 7.0 E 22 35 12 19 1022.1 1022.0 0.0
22/02:00pm 24.0 20.2 11.0 44 7.2 SE 22 30 12 16 1022.3 1022.2 0.0
22/01:30pm 25.1 22.8 13.0 47 7.0 E 17 28 9 15 1022.6 1022.5 0.0
22/01:00pm 23.4 19.4 10.5 44 7.1 E 22 35 12 19 1022.8 1022.7 0.0
22/12:30pm 23.6 19.6 10.3 43 7.3 E 22 28 12 15 1023.2 1023.1 0.0
22/12:00pm 23.3 19.5 9.7 42 7.4 ESE 20 28 11 15 1023.8 1023.7 0.0
22/11:30am 23.4 19.4 10.5 44 7.1 ESE 22 37 12 20 1024.1 1024.0 0.0
22/11:00am 24.1 21.3 10.0 41 7.7 ENE 15 22 8 12 1024.4 1024.3 0.0
22/10:30am 22.4 20.2 10.9 48 6.4 ESE 13 24 7 13 1024.9 1024.8 0.0
22/10:00am 22.0 20.2 10.8 49 6.1 S 11 17 6 9 1025.3 1025.2 0.0
22/09:30am 22.2 19.0 11.3 50 6.1 SSE 19 28 10 15 1025.6 1025.5 0.0
22/09:00am 21.3 17.9 11.3 53 5.5 SSE 20 28 11 15 1025.7 1025.6 0.0
22/08:30am 20.9 17.4 11.0 53 5.4 ESE 20 32 11 17 1025.7 1025.6 0.0
22/08:00am 20.8 18.2 12.0 57 4.9 SSE 17 22 9 12 1025.6 1025.5 0.0
22/07:30am 19.7 18.5 12.7 64 3.9 SSE 11 19 6 10 1025.6 1025.5 0.0
22/07:00am 18.6 16.2 12.6 68 3.3 S 17 20 9 11 1025.5 1025.4 0.0
22/06:30am 17.3 16.0 12.6 74 2.6 SSW 11 15 6 8 1025.3 1025.2 0.0
22/06:00am 16.1 15.1 12.3 78 2.1 SSW 9 11 5 6 1025.2 1025.1 0.0
22/05:30am 15.1 14.2 11.5 79 1.9 S 7 9 4 5 1025.0 1024.9 0.0
22/05:00am 15.3 14.0 11.3 77 2.1 SSW 9 11 5 6 1024.7 1024.6 0.0
22/04:30am 16.0 15.2 11.8 76 2.3 S 7 9 4 5 1024.7 1024.6 0.0
22/04:00am 16.3 15.1 11.7 74 2.5 S 9 13 5 7 1024.7 1024.6 0.0
22/03:30am 16.5 15.3 11.6 73 2.7 S 9 13 5 7 1024.7 1024.6 0.0
22/03:00am 16.6 14.7 11.7 73 2.7 S 13 17 7 9 1024.9 1024.8 0.0
22/02:30am 16.5 14.8 11.2 71 2.9 S 11 15 6 8 1025.1 1025.0 0.0
22/02:00am 16.3 14.7 11.7 74 2.5 S 11 15 6 8 1025.4 1025.3 0.0
22/01:30am 16.3 14.7 11.5 73 2.6 S 11 15 6 8 1025.6 1025.5 0.0
22/01:00am 15.9 14.7 11.7 76 2.3 SSW 9 11 5 6 1026.0 1025.9 0.0
22/12:30am 16.5 15.3 11.6 73 2.7 SSW 9 9 5 5 1026.4 1026.3 0.0
22/12:00am 17.1 16.0 12.0 72 2.8 S 9 11 5 6 1026.8 1026.7 0.0
 
Date/Time
EST
Tmp

°C
App
Tmp
°C
Dew
Point
°C
Rel
Hum
%
Delta-T

°C
Wind Press
QNH
hPa
Press
MSL
hPa
Rain
since
9 am
mm
Dir
 
Spd
km/h
Gust
km/h
Spd
kts
Gust
kts
21/11:30pm 17.7 16.6 11.9 69 3.2 S 9 13 5 7 1027.2 1027.1 0.0
21/11:00pm 18.3 16.9 12.1 67 3.4 SE 11 17 6 9 1027.6 1027.5 0.0
21/10:30pm 18.6 16.0 12.1 66 3.6 ESE 17 20 9 11 1027.7 1027.6 0.0
21/10:00pm 18.2 15.7 12.2 68 3.3 ESE 17 22 9 12 1027.8 1027.7 0.0
21/09:30pm 18.2 15.6 12.0 67 3.4 SE 17 24 9 13 1027.8 1027.7 0.0
21/09:00pm 18.5 14.7 12.3 67 3.4 SE 24 35 13 19 1027.6 1027.5 0.0
21/08:30pm 18.5 15.8 11.8 65 3.7 SE 17 28 9 15 1027.4 1027.3 0.0
21/08:00pm 19.1 14.7 11.7 62 4.1 ESE 26 37 14 20 1027.2 1027.1 0.0
21/07:30pm 19.5 16.7 12.5 64 3.9 ESE 19 26 10 14 1026.7 1026.6 0.0
21/07:00pm 20.0 16.6 12.5 62 4.2 SE 22 30 12 16 1026.4 1026.3 0.0
21/06:30pm 20.5 16.6 12.2 59 4.6 ESE 24 33 13 18 1026.1 1026.0 0.0
21/06:00pm 20.8 17.5 12.8 60 4.5 ESE 22 32 12 17 1025.6 1025.5 0.0

Latest Capital City Observations: Canberra | Sydney | Melbourne | Brisbane | Adelaide | Perth | Hobart | Darwin

Other Formats:

Comma delimited format used in spreadsheet applications
http://www.bom.gov.au/fwo/IDQ60901/IDQ60901.94575.axf

JavaScript Object Notation format (JSON) in row-major order
http://www.bom.gov.au/fwo/IDQ60901/IDQ60901.94575.json